ENCN/KRS METAR and TAF weather

Enter ICAO airport designator
Station Type Date Time Source
ENCN METAR 2020/03/28 20:50 UTC NOAA

ENCN 282050Z 01011KT 330V040 CAVOK 04/M08 Q1031


Station Type Date Time Source
ENCN Decoded METAR 2020/03/28 20:50 UTC NOAA

Kristiansand / Kjevik, Norway (ENCN) 58-12N 008-05E 17M
Mar 28, 2020 - 04:50 PM EDT / 2020.03.28 2050 UTC
Wind: from the N (010 degrees) at 13 MPH (11 KT) (direction variable):0
Visibility: greater than 7 mile(s):0
Temperature: 39 F (4 C)
Dew Point: 17 F (-8 C)
Relative Humidity: 41%
Pressure (altimeter): 30.45 in. Hg (1031 hPa)
ob: ENCN 282050Z 01011KT 330V040 CAVOK 04/M08 Q1031
cycle: 21

Station Type Date Time Source
ENCN TAF 2016/05/06 12:39 UTC NOAA

TAF TAF ENCN 061100Z 0612/0712 14008KT 9999 FEW040

Example: see airport list